createdAt,value
2022-09-03T00:02:00.394Z,100815.19
2022-09-03T00:04:36.267Z,100816.84
2022-09-03T00:07:10.197Z,100811.09
2022-09-03T00:09:43.524Z,100814.88
2022-09-03T00:12:15.950Z,100816.81
2022-09-03T00:14:50.014Z,100818.19
2022-09-03T00:17:21.024Z,100816.50
2022-09-03T00:19:55.786Z,100816.78
2022-09-03T00:22:27.228Z,100819.69
2022-09-03T00:24:56.225Z,100822.34
2022-09-03T00:27:27.838Z,100816.38
2022-09-03T00:29:59.675Z,100817.63
2022-09-03T00:32:31.337Z,100812.97
2022-09-03T00:35:06.265Z,100813.66
2022-09-03T00:37:38.047Z,100810.00
2022-09-03T00:40:13.612Z,100812.59
2022-09-03T00:42:48.805Z,100814.13
2022-09-03T00:45:26.935Z,100815.63
2022-09-03T00:48:05.177Z,100812.94
2022-09-03T00:50:44.335Z,100821.16
2022-09-03T00:53:18.559Z,100831.41
2022-09-03T00:55:51.792Z,100829.28
2022-09-03T00:58:34.359Z,100828.00
2022-09-03T01:01:09.659Z,100836.34
2022-09-03T01:03:43.451Z,100835.03
2022-09-03T01:06:20.257Z,100833.63
2022-09-03T01:09:01.083Z,100832.34
2022-09-03T01:11:37.563Z,100833.69
2022-09-03T01:14:21.216Z,100827.00
2022-09-03T01:16:55.321Z,100827.09
2022-09-03T01:20:04.276Z,100827.25
2022-09-03T01:22:57.654Z,100829.31
2022-09-03T01:25:38.772Z,100826.47
2022-09-03T01:28:24.004Z,100831.41
2022-09-03T01:30:57.573Z,100827.31
2022-09-03T01:33:32.184Z,100828.69
2022-09-03T01:36:08.034Z,100825.56
2022-09-03T01:38:41.480Z,100823.06
2022-09-03T01:41:36.427Z,100826.69
2022-09-03T01:44:11.539Z,100826.78
2022-09-03T01:46:42.489Z,100826.22
2022-09-03T01:49:21.228Z,100825.50
2022-09-03T01:51:52.732Z,100823.09
2022-09-03T01:54:39.694Z,100826.84
2022-09-03T01:57:37.506Z,100820.84
2022-09-03T02:00:11.265Z,100820.84
2022-09-03T02:02:43.817Z,100817.47
2022-09-03T02:05:15.666Z,100810.75
2022-09-03T02:07:46.769Z,100813.88
2022-09-03T02:10:18.524Z,100820.25
2022-09-03T02:12:49.760Z,100807.06
2022-09-03T02:15:22.361Z,100804.75
2022-09-03T02:17:54.199Z,100798.91
2022-09-03T02:20:26.184Z,100805.25
2022-09-03T02:22:55.564Z,100804.53
2022-09-03T02:25:30.204Z,100798.78
2022-09-03T02:27:59.183Z,100807.81
2022-09-03T02:30:29.380Z,100799.31
2022-09-03T02:32:58.198Z,100795.09
2022-09-03T02:35:26.915Z,100808.44
2022-09-03T02:37:55.571Z,100798.94
2022-09-03T02:40:24.471Z,100809.50
2022-09-03T02:42:53.672Z,100805.31
2022-09-03T02:45:26.439Z,100802.91
2022-09-03T02:47:58.589Z,100818.03
2022-09-03T02:50:27.981Z,100813.25
2022-09-03T02:52:56.466Z,100811.69
2022-09-03T02:55:25.254Z,100820.44
2022-09-03T02:57:54.017Z,100810.13
2022-09-03T03:00:22.950Z,100807.72
2022-09-03T03:02:52.524Z,100807.25
2022-09-03T03:05:31.647Z,100810.16
2022-09-03T03:08:01.474Z,100808.47
2022-09-03T03:10:30.087Z,100806.78
2022-09-03T03:12:59.131Z,100806.88
2022-09-03T03:15:28.020Z,100816.72
2022-09-03T03:17:57.921Z,100813.25
2022-09-03T03:20:28.121Z,100819.59
2022-09-03T03:22:56.691Z,100817.34
2022-09-03T03:25:25.407Z,100816.59
2022-09-03T03:27:57.137Z,100819.72
2022-09-03T03:30:25.852Z,100814.69
2022-09-03T03:32:54.709Z,100825.34
2022-09-03T03:35:23.667Z,100829.28
2022-09-03T03:37:53.423Z,100831.94
2022-09-03T03:40:22.205Z,100832.88
2022-09-03T03:42:51.052Z,100829.28
2022-09-03T03:45:19.797Z,100833.50
2022-09-03T03:47:48.474Z,100827.50
2022-09-03T03:50:17.490Z,100830.00
2022-09-03T03:52:45.891Z,100831.47
2022-09-03T03:55:16.118Z,100831.22
2022-09-03T03:57:44.819Z,100830.41
2022-09-03T04:00:16.028Z,100830.41
2022-09-03T04:02:44.861Z,100835.31
2022-09-03T04:05:13.732Z,100837.81
2022-09-03T04:07:47.439Z,100835.09
2022-09-03T04:10:17.879Z,100836.53
2022-09-03T04:12:46.537Z,100845.75
2022-09-03T04:15:15.275Z,100830.53
2022-09-03T04:17:44.242Z,100835.59
2022-09-03T04:20:12.952Z,100829.06
2022-09-03T04:22:41.245Z,100833.78
2022-09-03T04:25:10.759Z,100840.25
2022-09-03T04:27:40.836Z,100837.81
2022-09-03T04:30:10.601Z,100838.06
2022-09-03T04:32:57.243Z,100832.16
2022-09-03T04:35:29.366Z,100830.47
2022-09-03T04:37:59.238Z,100835.72
2022-09-03T04:40:27.918Z,100832.34
2022-09-03T04:43:00.942Z,100827.03
2022-09-03T04:45:29.787Z,100832.28
2022-09-03T04:48:00.168Z,100842.94
2022-09-03T04:50:29.884Z,100847.38
2022-09-03T04:53:07.223Z,100845.34
2022-09-03T04:55:36.737Z,100854.47
2022-09-03T04:58:07.870Z,100851.63
2022-09-03T05:00:37.922Z,100854.06
2022-09-03T05:03:06.627Z,100857.03
2022-09-03T05:05:35.451Z,100855.03
2022-09-03T05:08:05.141Z,100859.84
2022-09-03T05:10:33.615Z,100861.41
2022-09-03T05:13:03.563Z,100864.69
2022-09-03T05:15:34.553Z,100856.91
2022-09-03T05:18:04.005Z,100854.56
2022-09-03T05:20:33.360Z,100864.38
2022-09-03T05:23:03.955Z,100863.88
2022-09-03T05:25:33.340Z,100866.56
2022-09-03T05:28:03.055Z,100865.03
2022-09-03T05:30:33.163Z,100859.88
2022-09-03T05:33:01.884Z,100863.47
2022-09-03T05:35:30.994Z,100858.47
2022-09-03T05:38:01.885Z,100863.88
2022-09-03T05:40:29.977Z,100865.06
2022-09-03T05:42:59.953Z,100864.63
2022-09-03T05:45:29.870Z,100868.16
2022-09-03T05:48:02.690Z,100864.34
2022-09-03T05:50:32.134Z,100858.06
2022-09-03T05:53:00.919Z,100853.94
2022-09-03T05:55:29.991Z,100860.47
2022-09-03T05:57:58.790Z,100844.50
2022-09-03T06:00:28.168Z,100855.16
2022-09-03T06:02:57.282Z,100850.06
2022-09-03T06:05:28.819Z,100838.72
2022-09-03T06:07:57.189Z,100843.50
2022-09-03T06:10:30.707Z,100849.06
2022-09-03T06:13:03.891Z,100853.84
2022-09-03T06:15:32.966Z,100849.97
2022-09-03T06:18:01.658Z,100848.34
2022-09-03T06:20:36.824Z,100850.06
2022-09-03T06:23:05.971Z,100849.63
2022-09-03T06:25:34.565Z,100844.66
2022-09-03T06:28:03.758Z,100844.56
2022-09-03T06:30:32.385Z,100852.13
2022-09-03T06:33:01.104Z,100857.31
2022-09-03T06:35:32.027Z,100853.31
2022-09-03T06:38:12.575Z,100857.34
2022-09-03T06:40:40.986Z,100847.28
2022-09-03T06:43:11.034Z,100856.63
2022-09-03T06:45:39.707Z,100851.94
2022-09-03T06:48:08.522Z,100857.41
2022-09-03T06:50:38.548Z,100851.69
2022-09-03T06:53:07.247Z,100846.84
2022-09-03T06:55:35.758Z,100851.31
2022-09-03T06:58:04.385Z,100857.13
2022-09-03T07:00:33.364Z,100855.06
2022-09-03T07:03:03.155Z,100850.94
2022-09-03T07:05:32.245Z,100855.50
2022-09-03T07:08:02.387Z,100846.09
2022-09-03T07:10:30.788Z,100837.81
2022-09-03T07:12:59.661Z,100841.97
2022-09-03T07:15:28.487Z,100846.00
2022-09-03T07:17:57.264Z,100842.34
2022-09-03T07:20:26.102Z,100842.63
2022-09-03T07:22:56.793Z,100844.34
2022-09-03T07:25:27.476Z,100851.59
2022-09-03T07:27:56.190Z,100839.53
2022-09-03T07:30:26.545Z,100843.66
2022-09-03T07:32:55.217Z,100842.50
2022-09-03T07:35:25.902Z,100858.63
2022-09-03T07:37:55.262Z,100849.25
2022-09-03T07:40:23.867Z,100846.31
2022-09-03T07:42:59.031Z,100843.25
2022-09-03T07:45:29.293Z,100842.41
2022-09-03T07:47:58.076Z,100844.06
2022-09-03T07:50:26.903Z,100840.19
2022-09-03T07:52:59.029Z,100837.69
2022-09-03T07:55:28.068Z,100842.22
2022-09-03T07:57:59.571Z,100840.16
2022-09-03T08:00:28.696Z,100842.88
2022-09-03T08:02:59.787Z,100839.56
2022-09-03T08:05:28.527Z,100847.50
2022-09-03T08:07:57.215Z,100849.66
2022-09-03T08:10:28.618Z,100845.75
2022-09-03T08:12:59.390Z,100842.31
2022-09-03T08:15:28.275Z,100850.75
2022-09-03T08:18:03.552Z,100838.78
2022-09-03T08:20:35.183Z,100836.25
2022-09-03T08:23:04.232Z,100838.47
2022-09-03T08:25:33.292Z,100846.84
2022-09-03T08:28:03.104Z,100846.06
2022-09-03T08:30:31.810Z,100850.75
2022-09-03T08:33:04.987Z,100854.22
2022-09-03T08:35:34.839Z,100850.53
2022-09-03T08:38:06.296Z,100848.97
2022-09-03T08:40:39.394Z,100849.72
2022-09-03T08:43:17.517Z,100861.75
2022-09-03T08:45:46.885Z,100857.34
2022-09-03T08:48:21.725Z,100843.66
2022-09-03T08:50:59.985Z,100831.06
2022-09-03T08:53:37.663Z,100844.41
2022-09-03T08:56:09.697Z,100823.56
2022-09-03T08:58:44.026Z,100817.75
2022-09-03T09:01:18.017Z,100823.47
2022-09-03T09:03:55.233Z,100823.81
2022-09-03T09:06:30.229Z,100809.63
2022-09-03T09:09:05.669Z,100808.38
2022-09-03T09:11:45.270Z,100808.56
2022-09-03T09:14:21.592Z,100814.06
2022-09-03T09:16:59.142Z,100808.34
2022-09-03T09:19:39.168Z,100811.78
2022-09-03T09:22:11.181Z,100802.66
2022-09-03T09:24:43.289Z,100810.19
2022-09-03T09:27:17.282Z,100816.38
2022-09-03T09:29:50.247Z,100813.09
2022-09-03T09:32:21.672Z,100809.81
2022-09-03T09:34:52.563Z,100812.25
2022-09-03T09:37:22.189Z,100809.88
2022-09-03T09:39:58.545Z,100805.41
2022-09-03T09:42:30.015Z,100806.72
2022-09-03T09:45:10.686Z,100813.00
2022-09-03T09:47:40.948Z,100805.13
2022-09-03T09:50:26.362Z,100807.44
2022-09-03T09:53:05.384Z,100806.47
2022-09-03T09:55:33.957Z,100799.25
2022-09-03T09:58:14.444Z,100807.88
2022-09-03T10:00:56.673Z,100811.19
2022-09-03T10:03:30.000Z,100807.69
2022-09-03T10:06:24.079Z,100810.44
2022-09-03T10:08:53.339Z,100795.72
2022-09-03T10:11:25.802Z,100804.09
2022-09-03T10:13:56.033Z,100801.81
2022-09-03T10:16:29.381Z,100806.41
2022-09-03T10:19:04.543Z,100803.66
2022-09-03T10:21:40.507Z,100807.22
2022-09-03T10:24:23.219Z,100802.50
2022-09-03T10:26:52.002Z,100792.59
2022-09-03T10:29:22.895Z,100797.13
2022-09-03T10:32:04.714Z,100785.84
2022-09-03T10:34:37.441Z,100785.22
2022-09-03T10:37:16.643Z,100782.34
2022-09-03T10:39:59.052Z,100778.75
2022-09-03T10:42:37.770Z,100777.59
2022-09-03T10:45:14.917Z,100775.28
2022-09-03T10:48:14.265Z,100765.91
2022-09-03T10:50:49.862Z,100759.03
2022-09-03T10:53:35.261Z,100756.47
2022-09-03T10:56:08.966Z,100756.44
2022-09-03T10:58:51.860Z,100755.19
2022-09-03T11:01:29.158Z,100760.22
2022-09-03T11:04:15.336Z,100768.16
2022-09-03T11:06:50.435Z,100760.75
2022-09-03T11:09:22.762Z,100761.41
2022-09-03T11:11:54.187Z,100750.00
2022-09-03T11:14:31.568Z,100752.28
2022-09-03T11:17:05.504Z,100761.03
2022-09-03T11:19:38.311Z,100764.81
2022-09-03T11:22:08.197Z,100753.63
2022-09-03T11:24:40.099Z,100734.41
2022-09-03T11:27:22.400Z,100737.78
2022-09-03T11:29:55.216Z,100744.59
2022-09-03T11:32:26.753Z,100746.25
2022-09-03T11:34:56.925Z,100734.44
2022-09-03T11:37:27.138Z,100742.19
2022-09-03T11:40:00.983Z,100748.03
2022-09-03T11:42:33.970Z,100744.00
2022-09-03T11:45:15.319Z,100736.16
2022-09-03T11:47:44.931Z,100736.59
2022-09-03T11:50:24.779Z,100726.47
2022-09-03T11:52:54.607Z,100725.63
2022-09-03T11:55:27.743Z,100727.56
2022-09-03T11:57:58.751Z,100709.41
2022-09-03T12:00:28.085Z,100715.63
2022-09-03T12:02:59.248Z,100722.53
2022-09-03T12:05:37.127Z,100714.78
2022-09-03T12:08:21.509Z,100702.53
2022-09-03T12:10:54.755Z,100704.09
2022-09-03T12:13:34.659Z,100712.47
2022-09-03T12:16:37.855Z,100703.19
2022-09-03T12:19:10.224Z,100693.25
2022-09-03T12:21:42.905Z,100696.19
2022-09-03T12:24:13.690Z,100681.13
2022-09-03T12:26:44.269Z,100684.81
2022-09-03T12:29:27.968Z,100677.81
2022-09-03T12:31:57.639Z,100679.44
2022-09-03T12:34:27.503Z,100680.41
2022-09-03T12:36:57.600Z,100681.72
2022-09-03T12:42:22.243Z,100677.88
2022-09-03T12:44:50.925Z,100672.44
2022-09-03T12:47:37.532Z,100673.84
2022-09-03T12:50:09.337Z,100661.50
2022-09-03T12:52:42.187Z,100674.00
2022-09-03T12:55:20.531Z,100662.53
2022-09-03T12:57:51.343Z,100654.97
2022-09-03T13:00:20.684Z,100665.56
2022-09-03T13:02:50.702Z,100656.13
2022-09-03T13:05:21.536Z,100658.03
2022-09-03T13:07:54.178Z,100661.09
2022-09-03T13:10:28.067Z,100665.97
2022-09-03T13:13:01.080Z,100659.25
2022-09-03T13:15:30.939Z,100649.63
2022-09-03T13:18:12.002Z,100636.91
2022-09-03T13:20:52.470Z,100638.63
2022-09-03T13:24:05.963Z,100646.84
2022-09-03T13:26:44.490Z,100646.69
2022-09-03T13:29:32.575Z,100636.09
2022-09-03T13:32:06.254Z,100637.38
2022-09-03T13:34:38.260Z,100631.69
2022-09-03T13:37:15.671Z,100630.25
2022-09-03T13:39:53.322Z,100630.72
2022-09-03T13:42:26.893Z,100629.09
2022-09-03T13:44:58.624Z,100639.00
2022-09-03T13:47:31.413Z,100647.47
2022-09-03T13:50:22.395Z,100643.16
2022-09-03T13:52:57.351Z,100633.56
2022-09-03T13:55:33.607Z,100631.41
2022-09-03T13:58:07.552Z,100625.41
2022-09-03T14:00:41.735Z,100634.53
2022-09-03T14:03:15.677Z,100632.25
2022-09-03T14:05:52.365Z,100626.97
2022-09-03T14:08:25.799Z,100633.31
2022-09-03T14:11:01.186Z,100626.09
2022-09-03T14:13:38.758Z,100626.69
2022-09-03T14:16:09.785Z,100625.44
2022-09-03T14:18:44.544Z,100625.66
2022-09-03T14:21:18.630Z,100625.56
2022-09-03T14:23:50.304Z,100624.53
2022-09-03T14:26:38.213Z,100630.31
2022-09-03T14:29:16.956Z,100618.25
2022-09-03T14:32:04.131Z,100622.31
2022-09-03T14:34:42.581Z,100614.50
2022-09-03T14:37:21.861Z,100611.47
2022-09-03T14:39:54.422Z,100612.97
2022-09-03T14:42:39.031Z,100617.63
2022-09-03T14:45:52.256Z,100618.09
2022-09-03T14:48:52.603Z,100617.31
2022-09-03T14:51:34.322Z,100614.16
2022-09-03T14:54:29.596Z,100621.03
2022-09-03T14:57:12.944Z,100621.13
2022-09-03T15:00:10.466Z,100617.97
2022-09-03T15:03:15.477Z,100619.13
2022-09-03T15:05:51.812Z,100622.84
2022-09-03T15:08:31.514Z,100623.06
2022-09-03T15:11:02.322Z,100619.06
2022-09-03T15:13:32.579Z,100618.50
2022-09-03T15:16:16.363Z,100620.38
2022-09-03T15:18:58.682Z,100613.16
2022-09-03T15:21:33.753Z,100614.25
2022-09-03T15:24:09.318Z,100613.47
2022-09-03T15:26:53.834Z,100604.50
2022-09-03T15:29:37.749Z,100609.78
2022-09-03T15:32:14.486Z,100606.53
2022-09-03T15:34:56.407Z,100607.88
2022-09-03T15:37:29.347Z,100613.75
2022-09-03T15:40:06.771Z,100613.16
2022-09-03T15:42:37.884Z,100609.91
2022-09-03T15:45:15.992Z,100617.34
2022-09-03T15:47:57.122Z,100615.75
2022-09-03T15:50:36.513Z,100607.50
2022-09-03T15:53:15.508Z,100613.78
2022-09-03T15:55:44.942Z,100607.19
2022-09-03T15:58:23.092Z,100613.38
2022-09-03T16:01:00.434Z,100612.78
2022-09-03T16:03:45.524Z,100620.44
2022-09-03T16:06:26.819Z,100610.31
2022-09-03T16:08:57.501Z,100627.88
2022-09-03T16:11:36.339Z,100621.53
2022-09-03T16:14:08.572Z,100617.19
2022-09-03T16:16:51.894Z,100625.44
2022-09-03T16:19:25.890Z,100624.50
2022-09-03T16:22:00.537Z,100626.28
2022-09-03T16:24:34.943Z,100630.72
2022-09-03T16:27:09.766Z,100623.00
2022-09-03T16:29:40.918Z,100628.81
2022-09-03T16:32:14.094Z,100635.50
2022-09-03T16:34:51.610Z,100639.31
2022-09-03T16:37:26.033Z,100642.75
2022-09-03T16:40:01.309Z,100638.81
2022-09-03T16:42:34.706Z,100642.25
2022-09-03T16:45:11.946Z,100648.50
2022-09-03T16:47:54.147Z,100641.75
2022-09-03T16:50:32.531Z,100647.06
2022-09-03T16:53:08.102Z,100651.94
2022-09-03T16:55:51.735Z,100648.06
2022-09-03T16:58:24.062Z,100649.75
2022-09-03T17:01:06.706Z,100656.81
2022-09-03T17:03:56.000Z,100655.09
2022-09-03T17:06:43.672Z,100656.28
2022-09-03T17:09:25.959Z,100656.84
2022-09-03T17:12:03.517Z,100655.16
2022-09-03T17:14:53.718Z,100666.63
2022-09-03T17:17:33.746Z,100668.03
2022-09-03T17:20:07.295Z,100673.03
2022-09-03T17:22:46.745Z,100674.00
2022-09-03T17:25:23.398Z,100674.31
2022-09-03T17:27:53.568Z,100679.00
2022-09-03T17:30:25.876Z,100677.50
2022-09-03T17:33:25.659Z,100688.94
2022-09-03T17:36:00.715Z,100691.31
2022-09-03T17:38:56.424Z,100695.16
2022-09-03T17:41:33.630Z,100691.91
2022-09-03T17:44:07.526Z,100697.59
2022-09-03T17:46:41.239Z,100702.63
2022-09-03T17:49:11.353Z,100698.03
2022-09-03T17:51:46.446Z,100707.47
2022-09-03T17:54:23.288Z,100716.44
2022-09-03T17:56:59.865Z,100709.72
2022-09-03T17:59:37.053Z,100721.56
2022-09-03T18:02:11.378Z,100712.59
2022-09-03T18:04:45.855Z,100716.38
2022-09-03T18:07:23.678Z,100713.81
2022-09-03T18:10:04.029Z,100712.41
2022-09-03T18:12:59.731Z,100705.28
2022-09-03T18:15:38.860Z,100708.31
2022-09-03T18:18:10.309Z,100700.56
2022-09-03T18:21:21.977Z,100705.31
2022-09-03T18:24:12.866Z,100704.22
2022-09-03T18:27:03.359Z,100701.41
2022-09-03T18:29:53.699Z,100705.84
2022-09-03T18:32:40.990Z,100705.38
2022-09-03T18:35:27.783Z,100704.06
2022-09-03T18:38:14.376Z,100708.47
2022-09-03T18:41:11.683Z,100706.53
2022-09-03T18:44:08.982Z,100710.94
2022-09-03T18:50:16.594Z,100705.16
2022-09-03T18:53:07.378Z,100707.91
2022-09-03T18:56:06.398Z,100712.94
2022-09-03T18:59:01.620Z,100712.09
2022-09-03T19:01:51.612Z,100711.44
2022-09-03T19:04:43.379Z,100716.16
2022-09-03T19:07:31.368Z,100715.84
2022-09-03T19:10:22.799Z,100714.53
2022-09-03T19:13:34.926Z,100711.38
2022-09-03T19:16:27.556Z,100712.75
2022-09-03T19:19:54.862Z,100722.94
2022-09-03T19:22:46.917Z,100722.81
2022-09-03T19:25:34.186Z,100721.16
2022-09-03T19:28:37.778Z,100719.63
2022-09-03T19:31:50.444Z,100721.19
2022-09-03T19:34:54.719Z,100712.84
2022-09-03T19:37:42.244Z,100716.88
2022-09-03T19:40:45.138Z,100725.09
2022-09-03T19:43:38.777Z,100731.44
2022-09-03T19:46:33.866Z,100728.97
2022-09-03T19:49:30.880Z,100730.16
2022-09-03T19:52:21.848Z,100734.19
2022-09-03T19:55:12.144Z,100734.34
2022-09-03T19:57:59.799Z,100735.19
2022-09-03T20:00:46.799Z,100740.53
2022-09-03T20:03:33.685Z,100737.88
2022-09-03T20:06:24.116Z,100746.53
2022-09-03T20:09:11.214Z,100728.53
2022-09-03T20:11:41.007Z,100729.88
2022-09-03T20:14:17.408Z,100727.84
2022-09-03T20:17:05.039Z,100729.53
2022-09-03T20:19:41.535Z,100739.69
2022-09-03T20:22:18.136Z,100738.50
2022-09-03T20:25:00.938Z,100741.16
2022-09-03T20:27:39.339Z,100742.53
2022-09-03T20:30:10.293Z,100737.19
2022-09-03T20:33:15.829Z,100743.00
2022-09-03T20:35:59.537Z,100739.69
2022-09-03T20:38:44.056Z,100744.50
2022-09-03T20:41:19.446Z,100749.50
2022-09-03T20:44:04.288Z,100746.31
2022-09-03T20:46:41.461Z,100764.47
2022-09-03T20:49:20.249Z,100760.47
2022-09-03T20:51:54.855Z,100761.63
2022-09-03T20:54:31.844Z,100757.13
2022-09-03T20:57:25.315Z,100751.63
2022-09-03T21:00:03.407Z,100752.78
2022-09-03T21:02:43.144Z,100761.25
2022-09-03T21:05:19.223Z,100752.91
2022-09-03T21:07:55.100Z,100769.53
2022-09-03T21:10:30.085Z,100763.34
2022-09-03T21:13:04.014Z,100772.00
2022-09-03T21:15:38.922Z,100767.47
2022-09-03T21:18:14.721Z,100771.28
2022-09-03T21:20:47.355Z,100771.59
2022-09-03T21:23:21.575Z,100778.56
2022-09-03T21:25:55.521Z,100776.81
2022-09-03T21:28:27.498Z,100772.13
2022-09-03T21:31:00.396Z,100779.59
2022-09-03T21:33:31.019Z,100778.06
2022-09-03T21:36:08.630Z,100783.06
2022-09-03T21:38:39.296Z,100780.34
2022-09-03T21:41:17.303Z,100777.00
2022-09-03T21:43:50.499Z,100773.97
2022-09-03T21:46:23.523Z,100771.81
2022-09-03T21:48:56.029Z,100779.78
2022-09-03T21:51:27.775Z,100779.41
2022-09-03T21:53:59.345Z,100770.59
2022-09-03T21:56:51.988Z,100778.91
2022-09-03T21:59:32.923Z,100774.94
2022-09-03T22:02:05.270Z,100774.94
2022-09-03T22:04:34.081Z,100779.22
2022-09-03T22:07:10.602Z,100779.88
2022-09-03T22:09:44.570Z,100783.47
2022-09-03T22:12:18.151Z,100775.13
2022-09-03T22:14:49.563Z,100776.41
2022-09-03T22:17:24.064Z,100780.38
2022-09-03T22:19:52.581Z,100781.53
2022-09-03T22:22:24.702Z,100780.66
2022-09-03T22:24:59.026Z,100792.28
2022-09-03T22:27:36.971Z,100797.41
2022-09-03T22:30:08.738Z,100794.81
2022-09-03T22:32:45.734Z,100797.41
2022-09-03T22:35:24.655Z,100799.38
2022-09-03T22:38:02.917Z,100794.66
2022-09-03T22:40:39.071Z,100795.13
2022-09-03T22:43:22.169Z,100791.91
2022-09-03T22:46:02.391Z,100801.19
2022-09-03T22:48:50.656Z,100811.16
2022-09-03T22:51:21.746Z,100801.94
2022-09-03T22:54:06.186Z,100800.72
2022-09-03T22:56:38.192Z,100809.09
2022-09-03T22:59:13.004Z,100810.38
2022-09-03T23:01:44.905Z,100810.00
2022-09-03T23:04:18.517Z,100814.06
2022-09-03T23:06:51.123Z,100805.56
2022-09-03T23:09:23.392Z,100806.38
2022-09-03T23:11:55.608Z,100808.22
2022-09-03T23:14:28.888Z,100811.84
2022-09-03T23:17:00.042Z,100814.66
2022-09-03T23:19:41.033Z,100816.28
2022-09-03T23:22:13.628Z,100824.66
2022-09-03T23:24:45.742Z,100829.28
2022-09-03T23:27:19.091Z,100830.97
2022-09-03T23:29:51.774Z,100834.44
2022-09-03T23:32:20.399Z,100832.38
2022-09-03T23:34:48.953Z,100842.41
2022-09-03T23:37:34.899Z,100834.44
2022-09-03T23:40:23.604Z,100842.69
2022-09-03T23:43:14.913Z,100836.16
2022-09-03T23:45:52.433Z,100845.41
2022-09-03T23:48:30.057Z,100849.28
2022-09-03T23:51:05.267Z,100841.19
2022-09-03T23:53:43.021Z,100843.84
2022-09-03T23:56:41.309Z,100849.84
2022-09-03T23:59:16.797Z,100861.88
